This is the latest recevied weather packets stored in our database for station/object PY2WOA-13. If no packets are shown the sender has not sent any weather packets the latest 10 day(s).
| Time | Temp. | Humidity | Pressure | Rain* | Wind** | Luminosity | Snow |
|---|---|---|---|---|---|---|---|
| 1788456904 | 37.22° C | 21% | 1010.3 hPa | - | - | - | - |
| 1788455103 | 37.22° C | 23% | 1010.9 hPa | - | - | - | - |
| 1788453303 | 35.56° C | 23% | 1011.7 hPa | - | - | - | - |
| 1788451504 | 34.44° C | 25% | 1012.4 hPa | - | - | - | - |
| 1788449704 | 33.33° C | 28% | 1013 hPa | - | - | - | - |
| 1788447904 | 32.22° C | 28% | 1013.5 hPa | - | - | - | - |
| 1788446104 | 31.67° C | 34% | 1014.2 hPa | - | - | - | - |
| 1788444303 | 29.44° C | 37% | 1015.3 hPa | - | - | - | - |
| 1788442503 | 27.78° C | 42% | 1015.9 hPa | - | - | - | - |
| 1788440703 | 26.11° C | 47% | 1016.4 hPa | - | - | - | - |
| 1788438904 | 23.89° C | 54% | 1016.8 hPa | - | - | - | - |
| 1788437104 | 22.22° C | 61% | 1017.2 hPa | - | - | - | - |
| 1788435304 | 20.56° C | 69% | 1017.3 hPa | - | - | - | - |
| 1788433504 | 18.89° C | 76% | 1017.3 hPa | - | - | - | - |
| 1788431704 | 17.78° C | 79% | 1017.5 hPa | - | - | - | - |
| 1788429904 | 16.67° C | 85% | 1017.6 hPa | - | - | - | - |
| 1788428104 | 16.11° C | 85% | 1017.8 hPa | - | - | - | - |
| 1788426304 | 16.67° C | 84% | 1017.2 hPa | - | - | - | - |
| 1788424503 | 16.67° C | 83% | 1016.9 hPa | - | - | - | - |
| 1788422703 | 16.67° C | 83% | 1016.8 hPa | - | - | - | - |
| 1788420904 | 17.22° C | 83% | 1016.9 hPa | - | - | - | - |
| 1788419104 | 17.22° C | 83% | 1017.1 hPa | - | - | - | - |
| 1788417304 | 17.22° C | 82% | 1017 hPa | - | - | - | - |
| 1788415504 | 17.78° C | 81% | 1017 hPa | - | - | - | - |
| 1788413703 | 17.78° C | 81% | 1017.4 hPa | - | - | - | - |
* Rain since midnight (hover to see other rain measurements)
** Current wind speed in m/s (hover to see current wind gust speed)